Bei Facebook empfehlenBei Twitter postenGoogle plusPinterest

Das Wetter im Erzgebirge am 10.03.2016

Wetter und Klima am 10.03.2016 Holzhau im Erzgebirge (630m ü.NN)
Letzte gemessene Temperatur und Uhrzeit der Messung23:45:00 Uhr-1.50 °C
Temperatur (Maximum / Höchstwert) und Uhrzeit der Messung14:00:00 Uhr4.90 °C
Temperatur (Minimum / Tiefstwert) und Uhrzeit der Messung23:45:00-1.50 °C
Errechneter Absolutwert der Temperaturschwankungen zwischen Tmin und Tmax des Tages6.40 K
Errechnete Tagesmitteltemperatur1.95521 °C
Gesamt - Niederschlag des Tages (in flüssiger Form)0.00 Liter / m²
Luftdruck (Maximum / Höchstwert) und Zeitpunkt der Messung23:45:00 Uhr1017.00 hPa
Luftdruck (Minimum / Tiefstwert) und Zeitpunkt der Messung00:00:00 Uhr1007.00 hPa
Errechneter Absolutwert der Luftdruckschwankungen des Tages10.00 hPa
Höchste gemessene Windgeschwindigkeit und Uhrzeit der Messung10:30:00 Uhr183.60 km/h
Errechnete Windhäufigkeit in Relation zu den Messwerten des Tages3.12500 %
Niedrigste Windkühle (Windchill) und Zeitpunkt der Messung10:30:00 Uhr-6.50 °C
Taupunkt (Maximum / Höchstwert) und Uhrzeit der Messung12:00:00 Uhr2.30 °C
Taupunkt (Minimum / Tiefstwert) und Uhrzeit der Messung23:30:00-3.20 °C
Anzahl der automatisch eingelesenen Messwerte 96

Detaillierte Wetter- und Klima- Messwerte für den 10.03.2016 in Holzhau im Erzgebirge (630m ü.NN)
ZeitTemperaturLuftdruckRel. LuftfeuchteWindWindrichtungWindchillTaupunktNiederschlag l/m²
23:45:00-1.50 °C1017.00 hPa90.00 %-3.10 °C 
23:30:00-1.40 °C1017.00 hPa89.00 %-3.20 °C 
23:15:00-1.10 °C1017.00 hPa89.00 %-2.90 °C 
23:00:00-0.80 °C1017.00 hPa89.00 %-2.60 °C 
22:45:00-0.50 °C1016.80 hPa89.00 %-2.30 °C 
22:30:000.10 °C1016.80 hPa89.00 %-1.50 °C 
22:15:000.50 °C1016.70 hPa89.00 %-1.10 °C 
22:00:001.10 °C1016.60 hPa89.00 %-0.50 °C 
21:45:001.30 °C1016.80 hPa89.00 %-0.30 °C 
21:30:001.30 °C1016.60 hPa89.00 %-0.30 °C 
21:15:001.30 °C1016.50 hPa89.00 %-0.30 °C 
21:00:001.40 °C1016.50 hPa88.00 %-0.40 °C 
20:45:001.40 °C1016.30 hPa88.00 %-0.40 °C 
20:30:001.50 °C1016.10 hPa88.00 %-0.30 °C 
20:15:001.50 °C1016.10 hPa88.00 %-0.30 °C 
20:00:001.60 °C1016.00 hPa88.00 %-0.20 °C 
19:45:001.80 °C1016.00 hPa87.00 %-0.10 °C 
19:30:001.80 °C1016.00 hPa87.00 %-0.10 °C 
19:15:001.90 °C1015.70 hPa87.00 %0.00 °C 
19:00:001.90 °C1015.60 hPa86.00 %-0.20 °C 
18:45:002.10 °C1015.50 hPa86.00 %0.00 °C 
18:30:002.10 °C1015.30 hPa86.00 %0.00 °C 
18:15:002.10 °C1015.20 hPa86.00 %0.00 °C 
18:00:002.20 °C1014.90 hPa86.00 %0.10 °C 
17:45:002.30 °C1015.00 hPa85.00 %0.00 °C 
17:30:002.50 °C1014.90 hPa85.00 %0.20 °C 
17:15:002.50 °C1014.90 hPa85.00 %0.20 °C 
17:00:002.60 °C1014.50 hPa84.00 %0.20 °C 
16:45:002.80 °C1014.70 hPa84.00 %0.40 °C 
16:30:003.10 °C1014.30 hPa83.00 %0.50 °C 
16:15:003.60 °C1014.20 hPa82.00 %0.80 °C 
16:00:004.10 °C1014.00 hPa82.00 %1.30 °C 
15:45:004.30 °C1013.90 hPa82.00 %1.50 °C 
15:30:004.50 °C1013.90 hPa82.00 %1.70 °C 
15:15:004.80 °C1013.80 hPa82.00 %2.00 °C 
15:00:004.80 °C1013.70 hPa82.00 %2.00 °C 
14:45:004.40 °C1013.70 hPa81.00 %1.40 °C 
14:30:004.80 °C1013.50 hPa82.00 %2.00 °C 
14:15:004.80 °C1013.50 hPa81.00 %1.80 °C 
14:00:004.90 °C1013.40 hPa82.00 %2.10 °C 
13:45:004.80 °C1013.40 hPa82.00 %2.00 °C 
13:30:004.40 °C1013.30 hPa81.00 %1.40 °C 
13:15:004.80 °C1013.30 hPa82.00 %2.00 °C 
13:00:004.80 °C1013.20 hPa82.00 %2.00 °C 
12:45:004.90 °C1013.20 hPa82.00 %2.10 °C 
12:30:004.90 °C1013.20 hPa82.00 %2.10 °C 
12:15:004.80 °C1013.10 hPa83.00 %2.20 °C 
12:00:004.90 °C1013.10 hPa83.00 %3.24 km/hSO4.90 °C2.30 °C 
11:45:004.80 °C1012.80 hPa84.00 %2.30 °C 
11:30:004.60 °C1012.60 hPa84.00 %2.10 °C 
11:15:004.60 °C1012.50 hPa85.00 %2.30 °C 
11:00:004.20 °C1012.40 hPa85.00 %1.90 °C 
10:45:004.10 °C1012.40 hPa86.00 %2.00 °C 
10:30:004.30 °C1012.10 hPa87.00 %183.60 km/hSO-6.50 °C2.30 °C 
10:15:004.10 °C1012.10 hPa88.00 %2.30 °C 
10:00:003.90 °C1012.00 hPa89.00 %2.30 °C 
09:45:003.40 °C1011.70 hPa89.00 %1.80 °C 
09:30:003.00 °C1011.50 hPa90.00 %1.50 °C 
09:15:002.70 °C1011.30 hPa91.00 %1.40 °C 
09:00:002.30 °C1011.00 hPa90.00 %0.80 °C 
08:45:001.80 °C1010.80 hPa91.00 %0.50 °C 
08:30:001.30 °C1010.70 hPa90.00 %-0.20 °C 
08:15:001.00 °C1010.70 hPa90.00 %-0.50 °C 
08:00:000.80 °C1010.40 hPa90.00 %-0.60 °C 
07:45:000.50 °C1010.30 hPa90.00 %-0.90 °C 
07:30:000.40 °C1010.30 hPa90.00 %-1.00 °C 
07:15:000.30 °C1010.20 hPa90.00 %-1.10 °C 
07:00:000.20 °C1010.10 hPa90.00 %-1.20 °C 
06:45:000.20 °C1009.80 hPa90.00 %-1.20 °C 
06:30:000.30 °C1009.70 hPa90.00 %-1.10 °C 
06:15:000.30 °C1009.50 hPa90.00 %-1.10 °C 
06:00:000.30 °C1009.40 hPa89.00 %-1.30 °C 
05:45:000.30 °C1009.40 hPa89.00 %-1.30 °C 
05:30:000.30 °C1009.30 hPa89.00 %-1.30 °C 
05:15:000.40 °C1009.00 hPa89.00 %-1.20 °C 
05:00:000.40 °C1008.80 hPa89.00 %-1.20 °C 
04:45:000.40 °C1008.70 hPa89.00 %-1.20 °C 
04:30:000.50 °C1008.60 hPa89.00 %-1.10 °C 
04:15:000.60 °C1008.50 hPa89.00 %-1.00 °C 
04:00:000.70 °C1008.40 hPa89.00 %-0.90 °C 
03:45:000.60 °C1008.20 hPa89.00 %-1.00 °C 
03:30:000.60 °C1008.10 hPa89.00 %-1.00 °C 
03:15:000.60 °C1007.90 hPa89.00 %-1.00 °C 
03:00:000.60 °C1007.70 hPa89.00 %-1.00 °C 
02:45:000.60 °C1007.70 hPa88.00 %-1.20 °C 
02:30:000.60 °C1007.70 hPa88.00 %-1.20 °C 
02:15:000.60 °C1007.60 hPa88.00 %-1.20 °C 
02:00:000.50 °C1007.50 hPa88.00 %-1.30 °C 
01:45:000.60 °C1007.50 hPa88.00 %-1.20 °C 
01:30:000.50 °C1007.50 hPa88.00 %-1.30 °C 
01:15:000.40 °C1007.30 hPa87.00 %-1.50 °C 
01:00:000.40 °C1007.20 hPa87.00 %-1.50 °C 
00:45:000.40 °C1007.30 hPa87.00 %-1.50 °C 
00:30:000.40 °C1007.20 hPa87.00 %-1.50 °C 
00:15:000.30 °C1007.10 hPa87.00 %3.60 km/hOSO0.30 °C-1.60 °C 
00:00:000.30 °C1007.00 hPa87.00 %-1.60 °C 

Permanenter Link zu dieser Seite: Wetter im Erzgebirge am 10.03.2016
Performance-Info: Die Erstellung der Seite / Statistik(en) / Tabelle(n) erforderte 5 Datenbankserver-Abfrage(n) und dauerte 102 Millisekunden. (Dieser Messwert ist von der Gesamt-Auslastung des Servers abhängig.)
Erzgebirge - Wetter | Erzgebirge - Wetter (Mobilgeräte) | Komplette Klimadatenbank